sensor_id;sensor_type;location;lat;lon;timestamp;temperature;humidity
1888;DHT22;944;51.574;6.980;2022-12-20T05:38:31;9.90;99.90
1888;DHT22;944;51.574;6.980;2022-12-20T05:41:30;9.90;99.90
1888;DHT22;944;51.574;6.980;2022-12-20T06:58:52;10.50;99.90
1888;DHT22;944;51.574;6.980;2022-12-20T07:01:28;10.50;1.00
1888;DHT22;944;51.574;6.980;2022-12-20T07:04:01;10.60;99.20
1888;DHT22;944;51.574;6.980;2022-12-20T07:06:33;10.60;99.90
1888;DHT22;944;51.574;6.980;2022-12-20T07:09:03;10.50;1.00
1888;DHT22;944;51.574;6.980;2022-12-20T07:18:38;10.60;99.90
1888;DHT22;944;51.574;6.980;2022-12-20T07:21:18;10.60;99.90
1888;DHT22;944;51.574;6.980;2022-12-20T07:23:54;10.70;1.00
1888;DHT22;944;51.574;6.980;2022-12-20T07:26:25;10.70;99.90
1888;DHT22;944;51.574;6.980;2022-12-20T07:28:57;10.70;1.00
1888;DHT22;944;51.574;6.980;2022-12-20T07:35:14;10.70;99.90
1888;DHT22;944;51.574;6.980;2022-12-20T07:37:44;10.80;1.00
1888;DHT22;944;51.574;6.980;2022-12-20T07:40:32;10.70;1.00
1888;DHT22;944;51.574;6.980;2022-12-20T07:50:52;10.70;99.90
1888;DHT22;944;51.574;6.980;2022-12-20T08:04:39;10.80;99.90
1888;DHT22;944;51.574;6.980;2022-12-20T08:07:14;10.90;99.90
1888;DHT22;944;51.574;6.980;2022-12-20T08:10:01;10.90;99.90
1888;DHT22;944;51.574;6.980;2022-12-20T08:16:12;10.90;99.90
1888;DHT22;944;51.574;6.980;2022-12-20T08:25:53;10.90;99.90
1888;DHT22;944;51.574;6.980;2022-12-20T08:28:24;11.00;99.90
1888;DHT22;944;51.574;6.980;2022-12-20T08:38:16;11.10;99.90
1888;DHT22;944;51.574;6.980;2022-12-20T08:40:48;11.20;99.90
1888;DHT22;944;51.574;6.980;2022-12-20T08:43:52;11.10;99.90
1888;DHT22;944;51.574;6.980;2022-12-20T08:46:20;11.10;99.90
1888;DHT22;944;51.574;6.980;2022-12-20T08:48:50;11.20;99.90
1888;DHT22;944;51.574;6.980;2022-12-20T08:51:20;11.10;99.90
1888;DHT22;944;51.574;6.980;2022-12-20T08:53:57;11.10;99.90
1888;DHT22;944;51.574;6.980;2022-12-20T09:05:31;11.20;99.90
1888;DHT22;944;51.574;6.980;2022-12-20T09:20:01;11.20;99.90
1888;DHT22;944;51.574;6.980;2022-12-20T09:30:13;11.50;99.90
1888;DHT22;944;51.574;6.980;2022-12-20T09:32:41;11.60;99.90
1888;DHT22;944;51.574;6.980;2022-12-20T09:35:08;11.60;99.90
1888;DHT22;944;51.574;6.980;2022-12-20T09:37:38;11.60;99.90
1888;DHT22;944;51.574;6.980;2022-12-20T09:40:14;11.80;99.90
1888;DHT22;944;51.574;6.980;2022-12-20T09:42:44;11.70;99.90
1888;DHT22;944;51.574;6.980;2022-12-20T09:45:24;11.70;99.90
1888;DHT22;944;51.574;6.980;2022-12-20T09:47:58;11.70;99.90
1888;DHT22;944;51.574;6.980;2022-12-20T09:50:55;11.80;99.90
1888;DHT22;944;51.574;6.980;2022-12-20T09:53:35;11.80;99.90
1888;DHT22;944;51.574;6.980;2022-12-20T09:56:22;11.80;99.90
1888;DHT22;944;51.574;6.980;2022-12-20T09:58:58;11.60;99.90
1888;DHT22;944;51.574;6.980;2022-12-20T10:01:28;11.70;99.90
1888;DHT22;944;51.574;6.980;2022-12-20T10:07:21;11.70;99.90
1888;DHT22;944;51.574;6.980;2022-12-20T10:10:20;11.70;99.90
1888;DHT22;944;51.574;6.980;2022-12-20T10:13:49;11.70;99.90
1888;DHT22;944;51.574;6.980;2022-12-20T10:29:24;11.70;99.90
1888;DHT22;944;51.574;6.980;2022-12-20T10:37:14;11.50;99.90
1888;DHT22;944;51.574;6.980;2022-12-20T10:44:56;11.60;99.90
1888;DHT22;944;51.574;6.980;2022-12-20T10:47:36;11.60;99.90
1888;DHT22;944;51.574;6.980;2022-12-20T10:50:21;11.70;99.90
1888;DHT22;944;51.574;6.980;2022-12-20T10:53:36;11.70;99.90
1888;DHT22;944;51.574;6.980;2022-12-20T10:56:29;11.70;99.90
1888;DHT22;944;51.574;6.980;2022-12-20T11:03:21;11.90;99.90
1888;DHT22;944;51.574;6.980;2022-12-20T11:06:11;11.80;99.90
1888;DHT22;944;51.574;6.980;2022-12-20T11:09:22;11.80;99.90
1888;DHT22;944;51.574;6.980;2022-12-20T11:12:00;11.80;99.90
1888;DHT22;944;51.574;6.980;2022-12-20T11:14:40;11.70;99.90
1888;DHT22;944;51.574;6.980;2022-12-20T11:17:19;11.70;99.90
1888;DHT22;944;51.574;6.980;2022-12-20T11:20:03;11.60;99.90
1888;DHT22;944;51.574;6.980;2022-12-20T11:22:53;11.80;99.90
1888;DHT22;944;51.574;6.980;2022-12-20T13:26:48;11.40;99.90
